createdAt,value
2018-12-15T00:00:54.754Z,26.50
2018-12-15T00:03:22.292Z,25.90
2018-12-15T00:05:49.798Z,26.17
2018-12-15T00:08:17.308Z,26.77
2018-12-15T00:10:44.825Z,25.77
2018-12-15T00:13:12.428Z,27.07
2018-12-15T00:15:39.946Z,27.67
2018-12-15T00:18:07.469Z,25.90
2018-12-15T00:20:34.977Z,25.67
2018-12-15T00:23:02.514Z,25.67
2018-12-15T00:25:30.151Z,26.10
2018-12-15T00:27:57.665Z,25.97
2018-12-15T00:30:25.319Z,26.13
2018-12-15T00:32:52.842Z,25.07
2018-12-15T00:35:20.383Z,24.63
2018-12-15T00:37:47.895Z,25.17
2018-12-15T00:40:15.411Z,26.93
2018-12-15T00:42:42.937Z,25.07
2018-12-15T00:45:10.450Z,25.20
2018-12-15T00:47:37.975Z,24.37
2018-12-15T00:50:05.489Z,22.97
2018-12-15T00:52:33.024Z,24.77
2018-12-15T00:55:00.554Z,23.60
2018-12-15T00:57:28.068Z,23.13
2018-12-15T00:59:55.602Z,24.37
2018-12-15T01:02:23.124Z,24.30
2018-12-15T01:04:50.653Z,24.33
2018-12-15T01:07:18.168Z,24.10
2018-12-15T01:09:45.677Z,23.47
2018-12-15T01:12:13.194Z,23.20
2018-12-15T01:14:40.702Z,23.93
2018-12-15T01:17:08.209Z,24.93
2018-12-15T01:19:35.817Z,22.00
2018-12-15T01:22:03.324Z,24.17
2018-12-15T01:24:30.832Z,25.10
2018-12-15T01:26:58.426Z,22.03
2018-12-15T01:29:25.941Z,23.23
2018-12-15T01:31:53.461Z,23.57
2018-12-15T01:34:20.999Z,23.17
2018-12-15T01:36:48.502Z,22.57
2018-12-15T01:39:16.034Z,21.90
2018-12-15T01:41:43.580Z,21.80
2018-12-15T01:44:11.082Z,21.37
2018-12-15T01:46:38.587Z,23.47
2018-12-15T01:49:06.107Z,23.20
2018-12-15T01:51:33.618Z,22.70
2018-12-15T01:54:01.146Z,24.40
2018-12-15T01:56:28.674Z,25.17
2018-12-15T01:58:56.273Z,23.60
2018-12-15T02:01:23.786Z,23.30
2018-12-15T02:03:51.314Z,23.80
2018-12-15T02:06:18.820Z,22.60
2018-12-15T02:08:46.314Z,23.73
2018-12-15T02:11:13.822Z,24.60
2018-12-15T02:13:41.331Z,25.17
2018-12-15T02:16:08.840Z,23.00
2018-12-15T02:18:36.360Z,22.50
2018-12-15T02:21:03.877Z,23.30
2018-12-15T02:23:31.394Z,22.37
2018-12-15T02:25:58.894Z,23.67
2018-12-15T02:28:26.396Z,24.73
2018-12-15T02:30:53.925Z,23.57
2018-12-15T02:33:21.446Z,25.37
2018-12-15T02:35:48.988Z,24.57
2018-12-15T02:38:16.545Z,23.13
2018-12-15T02:40:44.147Z,23.23
2018-12-15T02:43:11.663Z,23.17
2018-12-15T02:45:39.166Z,23.20
2018-12-15T02:48:06.685Z,23.13
2018-12-15T02:50:34.230Z,22.57
2018-12-15T02:53:01.747Z,21.93
2018-12-15T02:55:29.281Z,21.97
2018-12-15T02:57:56.794Z,21.73
2018-12-15T03:00:24.303Z,21.73
2018-12-15T03:02:51.811Z,22.63
2018-12-15T03:05:19.315Z,21.53
2018-12-15T03:07:46.835Z,20.10
2018-12-15T03:10:14.383Z,21.80
2018-12-15T03:12:41.933Z,20.57
2018-12-15T03:15:09.445Z,20.30
2018-12-15T03:17:36.987Z,19.63
2018-12-15T03:20:04.583Z,21.13
2018-12-15T03:22:32.096Z,20.77
2018-12-15T03:24:59.608Z,20.90
2018-12-15T03:27:27.135Z,21.03
2018-12-15T03:29:54.649Z,22.10
2018-12-15T03:32:22.182Z,21.47
2018-12-15T03:34:49.685Z,21.13
2018-12-15T03:37:17.222Z,20.67
2018-12-15T03:39:44.744Z,19.83
2018-12-15T03:42:12.291Z,21.00
2018-12-15T03:44:39.844Z,20.07
2018-12-15T03:47:07.355Z,19.40
2018-12-15T03:49:35.010Z,20.73
2018-12-15T03:52:02.539Z,20.40
2018-12-15T03:54:30.046Z,20.50
2018-12-15T03:56:57.654Z,19.05
2018-12-15T03:59:25.443Z,20.10
2018-12-15T04:01:52.967Z,21.75
2018-12-15T04:04:20.495Z,20.97
2018-12-15T04:06:48.089Z,19.75
2018-12-15T04:09:15.611Z,19.62
2018-12-15T04:11:43.137Z,20.33
2018-12-15T04:14:10.663Z,19.77
2018-12-15T04:16:38.181Z,18.52
2018-12-15T04:19:05.727Z,19.32
2018-12-15T04:21:33.243Z,18.17
2018-12-15T04:24:00.766Z,19.23
2018-12-15T04:26:28.312Z,19.27
2018-12-15T04:28:55.845Z,18.10
2018-12-15T04:31:23.455Z,16.93
2018-12-15T04:33:51.003Z,18.67
2018-12-15T04:36:18.518Z,17.20
2018-12-15T04:38:46.042Z,18.05
2018-12-15T04:41:13.551Z,16.57
2018-12-15T04:43:41.126Z,17.42
2018-12-15T04:46:08.663Z,16.00
2018-12-15T04:48:36.202Z,17.25
2018-12-15T04:51:03.736Z,16.50
2018-12-15T04:53:31.245Z,16.30
2018-12-15T04:55:58.770Z,17.42
2018-12-15T04:58:26.302Z,16.85
2018-12-15T05:00:53.831Z,16.37
2018-12-15T05:03:22.839Z,17.82
2018-12-15T05:05:50.583Z,16.07
2018-12-15T05:08:18.118Z,17.00
2018-12-15T05:10:45.628Z,16.62
2018-12-15T05:13:13.275Z,16.32
2018-12-15T05:15:40.787Z,15.93
2018-12-15T05:18:08.320Z,16.35
2018-12-15T05:20:35.871Z,15.75
2018-12-15T05:23:03.409Z,16.35
2018-12-15T05:25:30.934Z,15.85
2018-12-15T05:27:58.453Z,15.25
2018-12-15T05:30:26.097Z,15.60
2018-12-15T05:32:53.622Z,14.53
2018-12-15T05:35:21.414Z,15.20
2018-12-15T05:37:48.941Z,14.03
2018-12-15T05:40:16.467Z,15.05
2018-12-15T05:42:43.987Z,15.28
2018-12-15T05:45:11.503Z,16.17
2018-12-15T05:47:39.013Z,15.83
2018-12-15T05:50:06.775Z,15.78
2018-12-15T05:52:34.297Z,15.55
2018-12-15T05:55:01.820Z,14.98
2018-12-15T05:57:29.356Z,16.45
2018-12-15T05:59:56.889Z,15.40
2018-12-15T06:02:25.013Z,15.78
2018-12-15T06:04:53.610Z,15.13
2018-12-15T06:07:21.262Z,15.23
2018-12-15T06:09:48.798Z,15.60
2018-12-15T06:12:16.436Z,15.55
2018-12-15T06:14:43.953Z,15.48
2018-12-15T06:17:11.470Z,14.43
2018-12-15T06:19:38.992Z,14.87
2018-12-15T06:22:06.548Z,14.23
2018-12-15T06:24:34.064Z,15.08
2018-12-15T06:27:01.583Z,14.78
2018-12-15T06:29:29.124Z,15.38
2018-12-15T06:31:56.647Z,14.03
2018-12-15T06:34:24.183Z,13.40
2018-12-15T06:36:51.711Z,13.53
2018-12-15T06:39:19.248Z,13.15
2018-12-15T06:41:46.755Z,13.95
2018-12-15T06:44:14.418Z,14.20
2018-12-15T06:46:42.022Z,14.20
2018-12-15T06:49:09.562Z,14.68
2018-12-15T06:51:37.179Z,14.68
2018-12-15T06:54:04.767Z,16.27
2018-12-15T06:56:32.306Z,17.02
2018-12-15T06:58:59.890Z,17.20
2018-12-15T07:01:27.631Z,16.55
2018-12-15T07:03:55.218Z,16.05
2018-12-15T07:06:22.869Z,17.92
2018-12-15T07:08:50.380Z,17.90
2018-12-15T07:11:17.929Z,16.65
2018-12-15T07:13:45.643Z,17.90
2018-12-15T07:16:13.171Z,17.20
2018-12-15T07:18:44.792Z,18.92
2018-12-15T07:21:10.234Z,17.65
2018-12-15T07:23:37.774Z,18.60
2018-12-15T07:26:05.311Z,17.23
2018-12-15T07:28:33.161Z,18.12
2018-12-15T07:31:00.899Z,17.95
2018-12-15T07:33:28.420Z,18.32
2018-12-15T07:35:55.939Z,17.10
2018-12-15T07:38:23.459Z,16.90
2018-12-15T07:40:50.984Z,19.40
2018-12-15T07:43:18.507Z,18.32
2018-12-15T07:45:46.024Z,18.17
2018-12-15T07:48:13.733Z,17.80
2018-12-15T07:50:41.279Z,18.27
2018-12-15T07:53:08.829Z,19.07
2018-12-15T07:55:36.537Z,19.48
2018-12-15T07:58:04.062Z,18.30
2018-12-15T08:00:31.683Z,19.25
2018-12-15T08:02:59.215Z,18.23
2018-12-15T08:05:26.742Z,18.50
2018-12-15T08:07:54.271Z,18.95
2018-12-15T08:10:23.766Z,18.35
2018-12-15T08:13:02.602Z,19.75
2018-12-15T08:15:30.224Z,19.17
2018-12-15T08:17:57.741Z,20.45
2018-12-15T08:20:25.274Z,21.25
2018-12-15T08:22:52.789Z,22.17
2018-12-15T08:25:20.314Z,22.60
2018-12-15T08:27:47.862Z,21.35
2018-12-15T08:30:15.678Z,20.43
2018-12-15T08:32:43.277Z,18.27
2018-12-15T08:35:10.832Z,19.30
2018-12-15T08:37:38.368Z,18.40
2018-12-15T08:40:05.908Z,18.35
2018-12-15T08:42:33.455Z,18.37
2018-12-15T08:45:01.006Z,19.42
2018-12-15T08:47:28.530Z,19.62
2018-12-15T08:49:56.066Z,19.75
2018-12-15T08:52:24.364Z,19.60
2018-12-15T08:54:52.518Z,19.12
2018-12-15T08:57:25.190Z,19.98
2018-12-15T08:59:52.908Z,20.65
2018-12-15T09:02:20.504Z,20.85
2018-12-15T09:04:48.410Z,19.60
2018-12-15T09:07:16.637Z,19.42
2018-12-15T09:09:44.303Z,20.70
2018-12-15T09:12:11.834Z,19.87
2018-12-15T09:14:39.390Z,19.50
2018-12-15T09:17:06.947Z,20.20
2018-12-15T09:19:34.497Z,20.62
2018-12-15T09:22:02.025Z,20.40
2018-12-15T09:24:29.546Z,18.95
2018-12-15T09:26:57.085Z,19.87
2018-12-15T09:29:24.613Z,19.65
2018-12-15T09:31:52.130Z,20.60
2018-12-15T09:34:19.666Z,21.17
2018-12-15T09:36:47.202Z,20.45
2018-12-15T09:39:14.726Z,21.68
2018-12-15T09:41:42.260Z,20.08
2018-12-15T09:44:09.799Z,20.90
2018-12-15T09:46:37.332Z,20.63
2018-12-15T09:49:04.868Z,21.10
2018-12-15T09:51:32.474Z,20.90
2018-12-15T09:53:59.996Z,21.45
2018-12-15T09:56:27.521Z,20.05
2018-12-15T09:58:55.046Z,20.47
2018-12-15T10:01:22.672Z,20.10
2018-12-15T10:03:50.263Z,22.07
2018-12-15T10:06:17.998Z,20.63
2018-12-15T10:08:45.595Z,22.17
2018-12-15T10:11:13.103Z,20.50
2018-12-15T10:13:40.634Z,21.70
2018-12-15T10:16:08.333Z,21.77
2018-12-15T10:18:35.862Z,21.40
2018-12-15T10:21:03.552Z,21.37
2018-12-15T10:23:31.129Z,21.47
2018-12-15T10:25:58.649Z,20.73
2018-12-15T10:28:26.179Z,20.73
2018-12-15T10:30:59.456Z,21.97
2018-12-15T10:33:26.989Z,21.63
2018-12-15T10:35:54.497Z,21.47
2018-12-15T10:38:22.022Z,21.03
2018-12-15T10:40:49.545Z,20.97
2018-12-15T10:43:17.055Z,21.07
2018-12-15T10:45:44.567Z,21.63
2018-12-15T10:48:12.107Z,21.50
2018-12-15T10:50:39.625Z,20.97
2018-12-15T10:53:07.257Z,21.67
2018-12-15T10:55:34.781Z,21.17
2018-12-15T10:58:02.324Z,20.70
2018-12-15T11:00:35.567Z,21.03
2018-12-15T11:03:03.112Z,21.20
2018-12-15T11:05:30.644Z,20.40
2018-12-15T11:07:58.195Z,21.93
2018-12-15T11:10:32.360Z,21.27
2018-12-15T11:13:00.098Z,20.20
2018-12-15T11:15:28.052Z,21.43
2018-12-15T11:17:55.582Z,20.00
2018-12-15T11:20:23.125Z,20.67
2018-12-15T11:22:50.664Z,20.13
2018-12-15T11:25:18.187Z,21.03
2018-12-15T11:27:46.445Z,21.60
2018-12-15T11:30:14.305Z,21.13
2018-12-15T11:32:43.062Z,20.67
2018-12-15T11:35:10.569Z,20.83
2018-12-15T11:37:38.095Z,21.30
2018-12-15T11:40:07.029Z,21.33
2018-12-15T11:42:34.811Z,22.23
2018-12-15T11:45:02.436Z,22.83
2018-12-15T11:47:30.072Z,20.83
2018-12-15T11:49:57.721Z,20.60
2018-12-15T11:52:26.819Z,20.73
2018-12-15T11:54:54.419Z,21.77
2018-12-15T11:57:21.942Z,21.17
2018-12-15T11:59:49.452Z,20.17
2018-12-15T12:02:17.006Z,20.47
2018-12-15T12:04:44.557Z,19.67
2018-12-15T12:07:12.624Z,20.67
2018-12-15T12:09:40.356Z,20.23
2018-12-15T12:12:07.896Z,20.97
2018-12-15T12:14:35.514Z,21.10
2018-12-15T12:17:03.052Z,22.03
2018-12-15T12:19:31.014Z,22.07
2018-12-15T12:21:58.558Z,19.53
2018-12-15T12:24:26.075Z,20.00
2018-12-15T12:26:53.630Z,21.37
2018-12-15T12:29:21.220Z,20.83
2018-12-15T12:31:49.022Z,20.43
2018-12-15T12:34:16.796Z,20.80
2018-12-15T12:39:19.890Z,20.67
2018-12-15T12:41:47.616Z,19.83
2018-12-15T12:44:15.150Z,20.47
2018-12-15T12:46:42.914Z,20.77
2018-12-15T12:49:11.828Z,19.97
2018-12-15T12:51:39.602Z,19.83
2018-12-15T12:54:07.145Z,18.93
2018-12-15T12:56:34.744Z,20.83
2018-12-15T12:59:02.359Z,21.60
2018-12-15T13:01:29.896Z,21.77
2018-12-15T13:03:57.433Z,21.30
2018-12-15T13:06:25.016Z,20.33
2018-12-15T13:08:52.718Z,20.77
2018-12-15T13:11:20.482Z,21.13
2018-12-15T13:13:48.033Z,20.53
2018-12-15T13:16:15.933Z,21.97
2018-12-15T13:18:43.799Z,20.60
2018-12-15T13:21:11.323Z,20.37
2018-12-15T13:23:38.843Z,20.67
2018-12-15T13:26:07.149Z,21.60
2018-12-15T13:28:35.163Z,21.37
2018-12-15T13:31:10.526Z,19.30
2018-12-15T13:33:38.671Z,20.30
2018-12-15T13:36:14.350Z,20.83
2018-12-15T13:38:41.871Z,20.73
2018-12-15T13:41:09.413Z,20.90
2018-12-15T13:43:36.933Z,22.47
2018-12-15T13:46:04.461Z,21.27
2018-12-15T13:48:32.454Z,22.23
2018-12-15T13:51:00.302Z,21.37
2018-12-15T13:53:28.348Z,21.53
2018-12-15T13:55:55.880Z,22.47
2018-12-15T13:58:25.935Z,21.10
2018-12-15T14:00:53.738Z,22.87
2018-12-15T14:03:21.257Z,21.37
2018-12-15T14:05:50.961Z,20.80
2018-12-15T14:08:18.660Z,22.47
2018-12-15T14:10:53.094Z,21.53
2018-12-15T14:13:20.616Z,21.30
2018-12-15T14:15:48.150Z,22.17
2018-12-15T14:18:15.660Z,20.20
2018-12-15T14:20:45.154Z,21.80
2018-12-15T14:23:12.728Z,21.33
2018-12-15T14:25:50.598Z,21.33
2018-12-15T14:28:19.107Z,21.07
2018-12-15T14:30:58.140Z,21.10
2018-12-15T14:33:26.675Z,20.77
2018-12-15T14:35:57.454Z,22.03
2018-12-15T14:38:25.409Z,22.50
2018-12-15T14:41:00.084Z,22.23
2018-12-15T14:43:27.947Z,20.80
2018-12-15T14:45:58.644Z,21.63
2018-12-15T14:48:26.212Z,22.43
2018-12-15T14:50:53.893Z,22.40
2018-12-15T14:53:21.429Z,21.17
2018-12-15T14:55:49.781Z,22.10
2018-12-15T14:58:17.322Z,21.30
2018-12-15T15:00:44.883Z,22.37
2018-12-15T15:03:12.675Z,22.37
2018-12-15T15:05:40.751Z,21.43
2018-12-15T15:08:08.551Z,22.07
2018-12-15T15:10:36.463Z,21.67
2018-12-15T15:13:04.349Z,21.47
2018-12-15T15:15:31.904Z,21.83
2018-12-15T15:17:59.455Z,21.63
2018-12-15T15:20:29.758Z,22.03
2018-12-15T15:22:56.537Z,22.23
2018-12-15T15:25:24.601Z,22.10
2018-12-15T15:27:52.129Z,22.47
2018-12-15T15:30:20.136Z,22.30
2018-12-15T15:32:47.911Z,21.73
2018-12-15T15:35:15.490Z,22.87
2018-12-15T15:37:43.063Z,21.80
2018-12-15T15:40:11.227Z,22.10
2018-12-15T15:42:38.969Z,22.13
2018-12-15T15:45:06.495Z,22.07
2018-12-15T15:47:34.025Z,22.77
2018-12-15T15:50:01.939Z,21.03
2018-12-15T15:52:29.568Z,22.07
2018-12-15T15:54:57.095Z,20.80
2018-12-15T15:57:24.863Z,21.57
2018-12-15T15:59:52.581Z,23.07
2018-12-15T16:02:20.274Z,22.73
2018-12-15T16:04:47.823Z,24.13
2018-12-15T16:07:15.494Z,21.37
2018-12-15T16:09:44.980Z,23.40
2018-12-15T16:12:12.669Z,22.37
2018-12-15T16:14:40.211Z,23.57
2018-12-15T16:17:07.825Z,22.90
2018-12-15T16:19:35.378Z,22.57
2018-12-15T16:22:02.903Z,23.83
2018-12-15T16:24:30.431Z,23.53
2018-12-15T16:26:58.004Z,23.00
2018-12-15T16:29:25.596Z,22.43
2018-12-15T16:31:53.381Z,23.33
2018-12-15T16:34:20.951Z,22.73
2018-12-15T16:36:48.533Z,22.20
2018-12-15T16:39:16.141Z,22.03
2018-12-15T16:41:43.802Z,22.93
2018-12-15T16:44:11.341Z,23.37
2018-12-15T16:46:38.953Z,23.67
2018-12-15T16:49:06.487Z,24.67
2018-12-15T16:51:34.007Z,25.27
2018-12-15T16:54:01.547Z,24.60
2018-12-15T16:56:29.078Z,24.80
2018-12-15T16:58:56.591Z,23.97
2018-12-15T17:01:24.135Z,25.90
2018-12-15T17:03:51.888Z,25.13
2018-12-15T17:06:19.403Z,24.33
2018-12-15T17:08:46.926Z,22.80
2018-12-15T17:11:14.465Z,22.77
2018-12-15T17:13:41.990Z,23.83
2018-12-15T17:16:09.513Z,23.90
2018-12-15T17:18:37.114Z,24.07
2018-12-15T17:21:04.648Z,22.10
2018-12-15T17:23:32.199Z,23.73
2018-12-15T17:25:59.729Z,23.73
2018-12-15T17:28:27.254Z,23.50
2018-12-15T17:30:54.840Z,23.63
2018-12-15T17:33:22.542Z,24.77
2018-12-15T17:35:50.080Z,24.30
2018-12-15T17:38:17.626Z,24.57
2018-12-15T17:40:45.233Z,24.63
2018-12-15T17:43:12.876Z,26.20
2018-12-15T17:45:40.398Z,24.50
2018-12-15T17:48:07.930Z,25.13
2018-12-15T17:50:35.675Z,26.53
2018-12-15T17:53:03.186Z,25.80
2018-12-15T17:55:30.692Z,25.80
2018-12-15T17:57:58.234Z,25.40
2018-12-15T18:00:25.786Z,25.10
2018-12-15T18:02:53.334Z,25.83
2018-12-15T18:05:20.911Z,27.00
2018-12-15T18:07:48.505Z,26.27
2018-12-15T18:10:16.023Z,25.83
2018-12-15T18:12:43.533Z,26.53
2018-12-15T18:15:11.058Z,25.80
2018-12-15T18:17:38.572Z,25.13
2018-12-15T18:20:07.313Z,26.90
2018-12-15T18:22:34.851Z,25.93
2018-12-15T18:25:02.362Z,26.03
2018-12-15T18:27:29.889Z,26.47
2018-12-15T18:29:57.517Z,26.13
2018-12-15T18:32:25.037Z,26.73
2018-12-15T18:34:52.557Z,26.40
2018-12-15T18:37:20.086Z,25.43
2018-12-15T18:39:47.596Z,27.20
2018-12-15T18:42:15.157Z,26.03
2018-12-15T18:44:42.676Z,26.33
2018-12-15T18:47:10.193Z,26.73
2018-12-15T18:49:37.944Z,26.23
2018-12-15T18:52:05.605Z,27.93
2018-12-15T18:54:33.120Z,26.63
2018-12-15T18:57:02.244Z,28.60
2018-12-15T18:59:35.011Z,27.90
2018-12-15T19:02:02.902Z,26.87
2018-12-15T19:04:30.691Z,27.27
2018-12-15T19:06:58.614Z,27.70
2018-12-15T19:09:26.123Z,28.50
2018-12-15T19:11:53.962Z,27.57
2018-12-15T19:14:21.655Z,26.93
2018-12-15T19:16:49.402Z,27.53
2018-12-15T19:19:17.538Z,27.63
2018-12-15T19:21:45.814Z,25.93
2018-12-15T19:24:13.878Z,26.27
2018-12-15T19:26:41.548Z,27.87
2018-12-15T19:29:09.289Z,27.80
2018-12-15T19:31:37.064Z,27.35
2018-12-15T19:34:04.582Z,28.43
2018-12-15T19:36:32.106Z,28.70
2018-12-15T19:38:59.623Z,27.27
2018-12-15T19:41:27.136Z,27.23
2018-12-15T19:43:54.713Z,26.40
2018-12-15T19:46:22.219Z,27.60
2018-12-15T19:48:49.825Z,28.23
2018-12-15T19:51:17.347Z,27.97
2018-12-15T19:53:44.872Z,27.70
2018-12-15T19:56:12.395Z,28.60
2018-12-15T19:58:39.920Z,28.07
2018-12-15T20:01:07.451Z,29.03
2018-12-15T20:03:35.011Z,28.67
2018-12-15T20:06:02.543Z,29.83
2018-12-15T20:08:30.064Z,29.65
2018-12-15T20:10:57.603Z,27.40
2018-12-15T20:13:25.135Z,28.50
2018-12-15T20:15:52.667Z,28.00
2018-12-15T20:18:20.195Z,28.83
2018-12-15T20:20:47.717Z,28.60
2018-12-15T20:23:15.247Z,29.90
2018-12-15T20:25:42.785Z,28.53
2018-12-15T20:28:10.326Z,30.50
2018-12-15T20:30:37.861Z,28.03
2018-12-15T20:33:05.699Z,29.10
2018-12-15T20:35:33.217Z,28.47
2018-12-15T20:38:00.721Z,29.90
2018-12-15T20:40:28.262Z,29.37
2018-12-15T20:42:55.780Z,28.73
2018-12-15T20:45:23.284Z,28.47
2018-12-15T20:47:50.799Z,30.53
2018-12-15T20:50:18.314Z,27.67
2018-12-15T20:52:47.726Z,28.20
2018-12-15T20:55:15.359Z,27.33
2018-12-15T20:57:42.878Z,28.23
2018-12-15T21:00:10.683Z,29.00
2018-12-15T21:02:38.202Z,28.93
2018-12-15T21:05:06.109Z,29.03
2018-12-15T21:07:33.623Z,29.00
2018-12-15T21:10:01.173Z,28.90
2018-12-15T21:12:28.720Z,29.00
2018-12-15T21:14:58.211Z,30.33
2018-12-15T21:17:25.734Z,28.73
2018-12-15T21:19:53.256Z,29.47
2018-12-15T21:22:20.830Z,28.73
2018-12-15T21:24:48.367Z,29.30
2018-12-15T21:27:15.883Z,27.77
2018-12-15T21:29:43.403Z,28.20
2018-12-15T21:32:10.921Z,28.30
2018-12-15T21:34:38.517Z,28.73
2018-12-15T21:37:06.074Z,29.87
2018-12-15T21:39:33.609Z,28.00
2018-12-15T21:42:01.125Z,27.73
2018-12-15T21:44:28.643Z,28.53
2018-12-15T21:46:56.166Z,28.53
2018-12-15T21:49:23.686Z,27.80
2018-12-15T21:51:56.260Z,28.17
2018-12-15T21:54:20.766Z,28.27
2018-12-15T21:56:48.296Z,28.77
2018-12-15T21:59:15.827Z,27.27
2018-12-15T22:01:43.348Z,28.63
2018-12-15T22:04:10.990Z,28.37
2018-12-15T22:06:38.513Z,27.90
2018-12-15T22:09:06.933Z,29.57
2018-12-15T22:11:34.477Z,27.57
2018-12-15T22:14:03.208Z,28.10
2018-12-15T22:16:31.771Z,27.13
2018-12-15T22:18:59.558Z,28.23
2018-12-15T22:21:27.070Z,28.20
2018-12-15T22:23:54.582Z,28.67
2018-12-15T22:26:22.094Z,26.97
2018-12-15T22:28:49.622Z,26.50
2018-12-15T22:31:17.146Z,28.20
2018-12-15T22:33:44.684Z,26.53
2018-12-15T22:36:12.194Z,29.57
2018-12-15T22:38:39.752Z,28.40
2018-12-15T22:41:07.270Z,28.50
2018-12-15T22:43:34.786Z,27.50
2018-12-15T22:46:02.533Z,27.20
2018-12-15T22:48:30.058Z,26.60
2018-12-15T22:50:57.718Z,26.20
2018-12-15T22:53:25.226Z,27.97
2018-12-15T22:55:52.750Z,26.57
2018-12-15T22:58:20.256Z,25.47
2018-12-15T23:00:53.699Z,25.43
2018-12-15T23:03:21.214Z,25.10
2018-12-15T23:05:48.727Z,25.80
2018-12-15T23:08:16.247Z,26.17
2018-12-15T23:10:43.761Z,25.67
2018-12-15T23:13:11.284Z,24.80
2018-12-15T23:15:38.823Z,23.73
2018-12-15T23:18:06.330Z,23.83
2018-12-15T23:20:33.849Z,22.33
2018-12-15T23:23:01.371Z,23.20
2018-12-15T23:25:28.884Z,23.10
2018-12-15T23:27:56.409Z,22.10
2018-12-15T23:30:23.925Z,23.03
2018-12-15T23:32:51.434Z,23.63
2018-12-15T23:35:18.955Z,22.70
2018-12-15T23:37:46.700Z,20.10
2018-12-15T23:40:14.209Z,21.20
2018-12-15T23:42:41.725Z,20.47
2018-12-15T23:45:09.235Z,21.77
2018-12-15T23:47:36.747Z,20.97
2018-12-15T23:50:05.493Z,20.10
2018-12-15T23:52:33.104Z,20.30
2018-12-15T23:55:00.625Z,21.40
2018-12-15T23:57:28.151Z,21.73
2018-12-15T23:59:55.670Z,21.33
